Time;durP1;ratioP1;P1;durP2;ratioP2;P2;SDS_P1;SDS_P2;PMS_P1;PMS_P2;Temp;Humidity;BMP_temperature;BMP_pressure;BME280_temperature;BME280_humidity;BME280_pressure;Samples;Min_cycle;Max_cycle;Signal;HPM_P1;HPM_P2
2024/03/23 00:00:41;;;;;;;;;;;;;;;23.68;34.47;101144.53;4100541;29;19930;-72
2024/03/23 00:02:42;;;;;;;;;;;;;;;23.68;34.28;101146.34;4099927;29;19928;-70
2024/03/23 00:04:44;;;;;;;;;;;;;;;23.66;34.15;101143.81;4100277;29;19922;-71
2024/03/23 00:06:45;;;;;;;;;;;;;;;23.67;34.41;101147.31;4100290;29;19922;-71
2024/03/23 00:08:46;;;;;;;;;;;;;;;23.67;34.37;101156.25;4100117;29;19926;-72
2024/03/23 00:10:48;;;;;;;;;;;;;;;23.65;34.08;101155.53;4100402;29;19929;-71
2024/03/23 00:12:49;;;;;;;;;;;;;;;23.64;34.20;101156.50;4100146;29;20431;-71
2024/03/23 00:14:50;;;;;;;;;;;;;;;23.63;34.04;101151.25;4100192;29;19926;-71
2024/03/23 00:16:52;;;;;;;;;;;;;;;23.60;34.46;101157.75;4099903;29;20416;-72
2024/03/23 00:18:53;;;;;;;;;;;;;;;23.59;34.14;101162.25;4099789;29;19922;-71
2024/03/23 00:20:54;;;;;;;;;;;;;;;23.56;34.48;101151.78;4100001;29;20409;-72
2024/03/23 00:22:56;;;;;;;;;;;;;;;23.56;34.32;101158.97;4099897;29;19926;-71
2024/03/23 00:24:57;;;;;;;;;;;;;;;23.54;34.43;101156.41;4100059;29;19926;-72
2024/03/23 00:26:58;;;;;;;;;;;;;;;23.56;34.39;101156.28;4100084;29;19923;-72
2024/03/23 00:29:00;;;;;;;;;;;;;;;23.56;34.17;101151.78;4100216;29;19995;-72
2024/03/23 00:31:01;;;;;;;;;;;;;;;23.58;34.12;101147.13;4100014;29;19923;-73
2024/03/23 00:33:03;;;;;;;;;;;;;;;23.60;34.22;101155.91;4099809;29;19926;-72
2024/03/23 00:35:04;;;;;;;;;;;;;;;23.63;34.30;101164.69;4100087;29;19923;-72
2024/03/23 00:37:06;;;;;;;;;;;;;;;23.59;34.22;101156.88;4100174;29;19927;-72
2024/03/23 00:39:08;;;;;;;;;;;;;;;23.57;34.44;101160.69;4099605;29;19928;-72
2024/03/23 00:41:10;;;;;;;;;;;;;;;23.58;34.42;101160.53;4099948;29;19929;-72
2024/03/23 00:43:11;;;;;;;;;;;;;;;23.57;34.32;101149.94;4099717;29;19929;-72
2024/03/23 00:45:12;;;;;;;;;;;;;;;23.55;34.19;101146.53;4099650;29;19923;-72
2024/03/23 00:47:14;;;;;;;;;;;;;;;23.54;34.43;101147.53;4083427;29;19985;-72
2024/03/23 00:49:15;;;;;;;;;;;;;;;23.52;34.31;101149.47;4099554;29;19923;-72
2024/03/23 00:51:17;;;;;;;;;;;;;;;23.51;34.54;101143.25;4099959;29;19926;-72
2024/03/23 00:53:18;;;;;;;;;;;;;;;23.49;34.20;101147.91;4099601;29;19922;-72
2024/03/23 00:55:19;;;;;;;;;;;;;;;23.49;34.30;101157.78;4099717;29;19922;-72
2024/03/23 00:57:20;;;;;;;;;;;;;;;23.49;34.38;101147.91;4099651;29;19998;-72
2024/03/23 00:59:22;;;;;;;;;;;;;;;23.51;34.09;101145.91;4099679;29;19926;-73
2024/03/23 01:01:22;;;;;;;;;;;;;;;23.52;34.17;101153.00;4099335;29;19922;-73
2024/03/23 01:03:23;;;;;;;;;;;;;;;23.52;33.97;101147.63;4099643;29;19929;-72
2024/03/23 01:05:24;;;;;;;;;;;;;;;23.53;34.14;101135.06;4099303;29;20324;-72
2024/03/23 01:07:25;;;;;;;;;;;;;;;23.52;34.01;101139.56;4099352;29;19922;-72
2024/03/23 01:09:26;;;;;;;;;;;;;;;23.52;34.05;101142.25;4098481;28;19923;-73
2024/03/23 01:11:27;;;;;;;;;;;;;;;23.53;34.00;101140.44;4099442;29;19976;-73
2024/03/23 01:13:28;;;;;;;;;;;;;;;23.51;34.17;101140.56;4099451;29;19922;-72
2024/03/23 01:15:28;;;;;;;;;;;;;;;23.49;34.17;101139.84;4099072;29;19953;-73
2024/03/23 01:17:29;;;;;;;;;;;;;;;23.48;34.17;101145.34;4099144;29;19978;-73
2024/03/23 01:19:30;;;;;;;;;;;;;;;23.47;34.21;101149.84;4099265;29;19922;-72
2024/03/23 01:21:31;;;;;;;;;;;;;;;23.46;34.18;101150.84;4099202;29;19973;-72
2024/03/23 01:23:32;;;;;;;;;;;;;;;23.44;34.26;101152.81;4099269;29;20472;-72
2024/03/23 01:25:33;;;;;;;;;;;;;;;23.44;34.44;101140.22;4099170;29;19966;-72
2024/03/23 01:27:34;;;;;;;;;;;;;;;23.47;34.35;101140.97;4099251;29;19922;-71
2024/03/23 01:29:35;;;;;;;;;;;;;;;23.48;34.34;101151.56;4098725;29;20427;-70
2024/03/23 01:31:35;;;;;;;;;;;;;;;23.48;34.14;101146.19;4099171;29;20301;-72
2024/03/23 01:33:36;;;;;;;;;;;;;;;23.49;34.41;101147.03;4098970;29;19926;-72
2024/03/23 01:35:37;;;;;;;;;;;;;;;23.48;34.20;101148.88;4098893;29;19923;-72
2024/03/23 01:37:38;;;;;;;;;;;;;;;23.48;34.12;101142.66;4098848;29;20049;-73
2024/03/23 01:39:39;;;;;;;;;;;;;;;23.48;34.12;101145.34;4098819;29;20285;-72
2024/03/23 01:41:42;;;;;;;;;;;;;;;23.46;34.04;101137.41;4098994;29;19922;-71
2024/03/23 01:43:43;;;;;;;;;;;;;;;23.45;34.27;101141.94;4098850;29;19929;-71
2024/03/23 01:45:43;;;;;;;;;;;;;;;23.43;34.17;101141.22;4098446;29;19926;-71
2024/03/23 01:47:44;;;;;;;;;;;;;;;23.44;34.04;101148.28;4098825;29;19929;-71
2024/03/23 01:49:45;;;;;;;;;;;;;;;23.43;34.10;101145.75;4098740;29;19923;-71
2024/03/23 01:51:46;;;;;;;;;;;;;;;23.41;34.07;101142.31;4098875;29;19922;-71
2024/03/23 01:53:47;;;;;;;;;;;;;;;23.39;34.14;101141.59;4098667;29;20020;-71
2024/03/23 01:55:48;;;;;;;;;;;;;;;23.39;34.16;101142.47;4098976;29;19964;-72
2024/03/23 01:57:49;;;;;;;;;;;;;;;23.40;34.20;101146.84;4098604;29;20378;-72
2024/03/23 01:59:50;;;;;;;;;;;;;;;23.39;34.09;101150.50;4098290;29;19928;-71
2024/03/23 02:01:51;;;;;;;;;;;;;;;23.41;34.31;101147.69;4098616;29;19929;-70
2024/03/23 02:03:52;;;;;;;;;;;;;;;23.42;34.36;101149.41;4098496;29;19969;-72
2024/03/23 02:05:53;;;;;;;;;;;;;;;23.41;34.18;101143.16;4098506;29;19923;-72
2024/03/23 02:07:54;;;;;;;;;;;;;;;23.40;34.15;101151.34;4098581;29;20258;-71
2024/03/23 02:09:55;;;;;;;;;;;;;;;23.40;34.18;101146.84;4098340;29;19922;-72
2024/03/23 02:11:56;;;;;;;;;;;;;;;23.37;34.15;101154.31;4098611;29;19928;-72
2024/03/23 02:13:58;;;;;;;;;;;;;;;23.37;34.39;101149.78;4098245;29;20020;-71
2024/03/23 02:15:58;;;;;;;;;;;;;;;23.35;34.32;101154.41;4098449;29;20019;-71
2024/03/23 02:17:59;;;;;;;;;;;;;;;23.36;34.41;101156.13;4098291;29;20017;-72
2024/03/23 02:20:00;;;;;;;;;;;;;;;23.35;34.17;101161.63;4098193;28;20026;-71
2024/03/23 02:22:01;;;;;;;;;;;;;;;23.34;34.28;101157.22;4098281;29;19922;-71
2024/03/23 02:24:02;;;;;;;;;;;;;;;23.32;34.14;101162.72;4098578;29;19969;-71
2024/03/23 02:26:03;;;;;;;;;;;;;;;23.29;34.22;101163.84;4098130;29;19922;-71
2024/03/23 02:28:04;;;;;;;;;;;;;;;23.31;34.11;101170.88;4098006;29;19922;-72
2024/03/23 02:30:05;;;;;;;;;;;;;;;23.32;34.16;101167.22;4098248;29;19929;-72
2024/03/23 02:32:08;;;;;;;;;;;;;;;23.32;34.34;101162.72;4082472;29;19923;-72
2024/03/23 02:34:09;;;;;;;;;;;;;;;23.34;34.05;101167.97;4098246;29;19926;-72
2024/03/23 02:36:10;;;;;;;;;;;;;;;23.32;33.94;101162.72;4098249;29;20408;-72
2024/03/23 02:38:11;;;;;;;;;;;;;;;23.32;34.11;101161.88;4082273;29;19930;-72
2024/03/23 02:40:12;;;;;;;;;;;;;;;23.31;34.17;101161.03;4098192;29;19922;-71
2024/03/23 02:42:12;;;;;;;;;;;;;;;23.30;34.17;101167.38;4098011;29;19926;-72
2024/03/23 02:44:13;;;;;;;;;;;;;;;23.28;34.35;101170.19;4098341;29;19952;-72
2024/03/23 02:46:14;;;;;;;;;;;;;;;23.29;34.04;101179.06;4097981;29;19946;-72
2024/03/23 02:48:15;;;;;;;;;;;;;;;23.27;34.17;101178.38;4098130;29;20373;-71
2024/03/23 02:50:16;;;;;;;;;;;;;;;23.26;34.13;101174.81;4098054;29;20287;-71
2024/03/23 02:52:17;;;;;;;;;;;;;;;23.24;34.23;101168.72;4098312;29;19930;-72
2024/03/23 02:54:17;;;;;;;;;;;;;;;23.23;34.36;101179.59;4097913;29;19927;-70
2024/03/23 02:56:19;;;;;;;;;;;;;;;23.20;34.02;101172.63;4082252;29;20313;-71
2024/03/23 02:58:19;;;;;;;;;;;;;;;23.21;34.01;101176.16;4097723;29;19968;-71
2024/03/23 03:00:20;;;;;;;;;;;;;;;23.21;34.23;101187.75;4098034;29;19930;-71
2024/03/23 03:02:21;;;;;;;;;;;;;;;23.22;34.22;101185.91;4098165;29;19929;-71
2024/03/23 03:04:22;;;;;;;;;;;;;;;23.21;34.23;101194.94;4097738;29;19926;-71
2024/03/23 03:06:24;;;;;;;;;;;;;;;23.20;34.23;101193.28;4098023;29;19931;-70
2024/03/23 03:08:24;;;;;;;;;;;;;;;23.19;34.01;101186.19;4097765;29;19922;-70
2024/03/23 03:10:25;;;;;;;;;;;;;;;23.20;34.02;101194.09;4097865;29;19929;-70
2024/03/23 03:12:26;;;;;;;;;;;;;;;23.19;34.14;101192.41;4097529;29;19980;-70
2024/03/23 03:14:28;;;;;;;;;;;;;;;23.20;33.89;101193.28;4097893;29;19941;-71
2024/03/23 03:16:28;;;;;;;;;;;;;;;23.19;34.21;101204.97;4097747;29;20417;-69
2024/03/23 03:18:29;;;;;;;;;;;;;;;23.17;34.17;101194.34;4097529;29;19976;-72
2024/03/23 03:20:31;;;;;;;;;;;;;;;23.17;34.08;101197.03;4097890;29;20353;-71
2024/03/23 03:22:32;;;;;;;;;;;;;;;23.16;33.96;101191.75;4097926;29;20396;-71
2024/03/23 03:24:35;;;;;;;;;;;;;;;23.14;33.85;101200.78;4097926;29;19922;-71
2024/03/23 03:26:37;;;;;;;;;;;;;;;23.12;34.00;101197.41;4097332;29;19938;-70
2024/03/23 03:28:37;;;;;;;;;;;;;;;23.11;34.00;101211.78;4097737;29;19926;-71
2024/03/23 03:30:38;;;;;;;;;;;;;;;23.11;34.05;101201.06;4097772;29;19923;-72
2024/03/23 03:32:39;;;;;;;;;;;;;;;23.12;33.87;101194.72;4099120;28;19922;-71
2024/03/23 03:34:40;;;;;;;;;;;;;;;23.14;33.66;101199.94;4100974;29;20425;-71
2024/03/23 03:36:40;;;;;;;;;;;;;;;23.15;33.76;101193.59;4100769;29;19926;-71
2024/03/23 03:38:41;;;;;;;;;;;;;;;23.13;33.92;101201.75;4100623;29;19922;-70
2024/03/23 03:40:42;;;;;;;;;;;;;;;23.12;33.83;101205.44;4100629;29;20021;-71
2024/03/23 03:42:43;;;;;;;;;;;;;;;23.10;33.90;101201.19;4100682;29;20341;-71
2024/03/23 03:44:43;;;;;;;;;;;;;;;23.10;33.94;101209.22;4100505;29;19929;-70
2024/03/23 03:46:44;;;;;;;;;;;;;;;23.08;33.67;101200.44;4100566;29;20016;-71
2024/03/23 03:48:47;;;;;;;;;;;;;;;23.05;33.92;101212.28;4100552;29;19923;-70
2024/03/23 03:50:48;;;;;;;;;;;;;;;23.06;33.59;101214.00;4100562;29;19926;-71
2024/03/23 03:52:49;;;;;;;;;;;;;;;23.04;33.66;101215.94;4100452;29;19922;-71
2024/03/23 03:54:51;;;;;;;;;;;;;;;23.03;33.91;101227.63;4100299;29;19930;-71
2024/03/23 03:56:51;;;;;;;;;;;;;;;23.03;33.65;101226.81;4100531;29;19922;-71
2024/03/23 03:58:52;;;;;;;;;;;;;;;23.03;33.74;101230.31;4100397;29;19922;-71
2024/03/23 04:00:53;;;;;;;;;;;;;;;23.03;33.78;101224.13;4084712;29;19927;-71
2024/03/23 04:02:54;;;;;;;;;;;;;;;23.02;33.56;101231.28;4084414;29;19922;-71
2024/03/23 04:04:55;;;;;;;;;;;;;;;23.02;33.50;101233.13;4100620;29;19938;-71
2024/03/23 04:07:00;;;;;;;;;;;;;;;23.02;33.68;101228.63;4100461;29;20345;-71
2024/03/23 04:09:01;;;;;;;;;;;;;;;23.02;33.83;101231.28;4100413;29;19937;-70
2024/03/23 04:11:02;;;;;;;;;;;;;;;23.03;33.64;101229.47;4100088;29;19929;-71
2024/03/23 04:13:04;;;;;;;;;;;;;;;23.00;33.74;101235.06;4100273;29;19922;-70
2024/03/23 04:15:05;;;;;;;;;;;;;;;22.99;33.82;101234.25;4100418;29;20416;-71
2024/03/23 04:17:06;;;;;;;;;;;;;;;22.98;33.83;101232.53;4099951;29;19929;-71
2024/03/23 04:19:07;;;;;;;;;;;;;;;22.97;33.49;101228.97;4100116;29;20021;-71
2024/03/23 04:21:09;;;;;;;;;;;;;;;22.98;33.69;101240.56;4100351;29;20016;-71
2024/03/23 04:23:09;;;;;;;;;;;;;;;22.97;33.66;101237.03;4099957;29;19929;-70
2024/03/23 04:25:10;;;;;;;;;;;;;;;22.95;33.38;101233.63;4099803;29;19926;-71
2024/03/23 04:27:11;;;;;;;;;;;;;;;22.94;33.75;101231.06;4099925;29;19923;-71
2024/03/23 04:29:12;;;;;;;;;;;;;;;22.92;33.72;101227.66;4099991;29;20386;-71
2024/03/23 04:31:13;;;;;;;;;;;;;;;22.93;33.67;101232.91;4100031;29;19927;-71
2024/03/23 04:33:14;;;;;;;;;;;;;;;22.94;33.57;101236.41;4100098;29;19957;-71
2024/03/23 04:35:14;;;;;;;;;;;;;;;22.94;33.53;101239.09;4100024;29;20480;-70
2024/03/23 04:37:16;;;;;;;;;;;;;;;22.94;33.45;101237.28;4099967;29;20020;-70
2024/03/23 04:39:17;;;;;;;;;;;;;;;22.95;33.35;101246.19;4099603;29;20348;-71
2024/03/23 04:41:18;;;;;;;;;;;;;;;22.95;33.68;101244.38;4099622;29;19929;-70
2024/03/23 04:43:18;;;;;;;;;;;;;;;22.93;33.70;101246.31;4099682;28;19923;-71
2024/03/23 04:45:19;;;;;;;;;;;;;;;22.92;33.39;101247.28;4099878;29;19923;-70
2024/03/23 04:47:20;;;;;;;;;;;;;;;22.92;33.59;101254.47;4083943;29;19975;-71
2024/03/23 04:49:21;;;;;;;;;;;;;;;22.90;33.43;101256.41;4099718;29;19922;-71
2024/03/23 04:51:25;;;;;;;;;;;;;;;22.90;33.54;101251.06;4099977;29;19931;-71
2024/03/23 04:53:28;;;;;;;;;;;;;;;22.87;33.70;101268.25;4099582;29;20405;-70
2024/03/23 04:55:29;;;;;;;;;;;;;;;22.87;33.55;101260.22;4099600;29;19933;-71
2024/03/23 04:57:30;;;;;;;;;;;;;;;22.86;33.40;101260.34;4099482;29;19922;-71
2024/03/23 04:59:30;;;;;;;;;;;;;;;22.84;33.42;101275.69;4099666;29;19922;-71
2024/03/23 05:01:31;;;;;;;;;;;;;;;22.83;33.72;101272.13;4099725;29;19923;-70
2024/03/23 05:03:32;;;;;;;;;;;;;;;22.84;33.25;101279.22;4099573;29;19959;-70
2024/03/23 05:05:33;;;;;;;;;;;;;;;22.83;33.33;101277.50;4099463;29;19990;-70
2024/03/23 05:07:34;;;;;;;;;;;;;;;22.84;33.72;101276.53;4099230;29;19926;-71
2024/03/23 05:09:35;;;;;;;;;;;;;;;22.86;33.56;101282.63;4099304;29;19977;-71
2024/03/23 05:11:35;;;;;;;;;;;;;;;22.85;33.47;101280.91;4099302;29;19923;-72
2024/03/23 05:13:36;;;;;;;;;;;;;;;22.85;33.47;101282.75;4099493;29;19922;-70
2024/03/23 05:15:37;;;;;;;;;;;;;;;22.81;33.13;101280.31;4099322;29;19926;-71
2024/03/23 05:17:38;;;;;;;;;;;;;;;22.81;33.55;101276.78;4099152;29;20254;-71
2024/03/23 05:19:39;;;;;;;;;;;;;;;22.79;33.22;101284.09;4099227;29;19923;-72
2024/03/23 05:21:39;;;;;;;;;;;;;;;22.76;33.03;101281.63;4098941;29;20049;-71
2024/03/23 05:23:40;;;;;;;;;;;;;;;22.75;33.47;101294.19;4099202;29;20362;-70
2024/03/23 05:25:41;;;;;;;;;;;;;;;22.74;33.38;101292.50;4099166;29;19950;-71
2024/03/23 05:27:42;;;;;;;;;;;;;;;22.74;33.21;101295.16;4099267;29;19922;-71
2024/03/23 05:29:43;;;;;;;;;;;;;;;22.72;33.11;101298.94;4099219;29;19922;-71
2024/03/23 05:31:43;;;;;;;;;;;;;;;22.71;33.35;101302.59;4099040;29;20012;-70
2024/03/23 05:33:44;;;;;;;;;;;;;;;22.71;32.96;101298.09;4099025;29;19926;-71
2024/03/23 05:35:45;;;;;;;;;;;;;;;22.71;33.07;101299.91;4098964;29;19922;-72
2024/03/23 05:37:46;;;;;;;;;;;;;;;22.71;33.36;101295.44;4098705;29;19929;-70
2024/03/23 05:39:49;;;;;;;;;;;;;;;22.70;33.26;101298.22;4098775;29;19926;-70
2024/03/23 05:41:50;;;;;;;;;;;;;;;22.70;33.10;101296.41;4098917;29;19958;-71
2024/03/23 05:43:51;;;;;;;;;;;;;;;22.71;33.04;101306.16;4098660;29;19933;-72
2024/03/23 05:45:55;;;;;;;;;;;;;;;22.70;33.17;101304.44;4098964;29;19958;-70
2024/03/23 05:47:56;;;;;;;;;;;;;;;22.69;33.28;101305.41;4098710;29;19928;-70
2024/03/23 05:49:57;;;;;;;;;;;;;;;22.68;33.17;101306.38;4098678;29;19926;-72
2024/03/23 05:51:58;;;;;;;;;;;;;;;22.68;32.81;101303.69;4098521;29;19922;-71
2024/03/23 05:53:59;;;;;;;;;;;;;;;22.66;32.81;101313.69;4098741;29;20032;-71
2024/03/23 05:56:01;;;;;;;;;;;;;;;22.65;33.14;101307.47;4098226;28;19974;-70
2024/03/23 05:58:02;;;;;;;;;;;;;;;22.64;33.24;101312.97;4098916;29;19933;-71
2024/03/23 06:00:03;;;;;;;;;;;;;;;22.63;32.81;101330.84;4098807;29;20017;-71
2024/03/23 06:02:04;;;;;;;;;;;;;;;22.63;33.13;101330.84;4098843;29;19926;-70
2024/03/23 06:04:06;;;;;;;;;;;;;;;22.63;33.08;101335.38;4098718;29;19922;-71
2024/03/23 06:06:11;;;;;;;;;;;;;;;22.64;32.99;101329.06;4098387;29;20459;-72
2024/03/23 06:08:13;;;;;;;;;;;;;;;22.65;32.83;101330.75;4098577;29;19945;-70
2024/03/23 06:10:13;;;;;;;;;;;;;;;22.65;32.94;101336.97;4098672;29;19926;-70
2024/03/23 06:12:15;;;;;;;;;;;;;;;22.67;33.04;101336.00;4098606;29;19928;-71
2024/03/23 06:14:16;;;;;;;;;;;;;;;22.67;33.07;101325.28;4082905;29;20251;-70
2024/03/23 06:16:23;;;;;;;;;;;;;;;22.65;33.05;101326.25;4098370;29;20143;-72
2024/03/23 06:18:24;;;;;;;;;;;;;;;22.64;32.74;101337.09;4098378;29;19922;-71
2024/03/23 06:20:25;;;;;;;;;;;;;;;22.64;33.08;101339.78;4098192;29;19926;-71
2024/03/23 06:22:26;;;;;;;;;;;;;;;22.65;32.76;101354.88;4098546;29;19923;-72
2024/03/23 06:24:27;;;;;;;;;;;;;;;22.62;32.89;101357.78;4098210;29;19922;-71
2024/03/23 06:26:28;;;;;;;;;;;;;;;22.59;32.64;101348.16;4098239;29;19932;-71
2024/03/23 06:28:29;;;;;;;;;;;;;;;22.59;33.01;101356.22;4098568;29;19926;-71
2024/03/23 06:30:31;;;;;;;;;;;;;;;22.58;32.87;101353.66;4098286;29;19922;-71
2024/03/23 06:32:33;;;;;;;;;;;;;;;22.58;33.12;101359.00;4098145;29;20401;-71
2024/03/23 06:34:35;;;;;;;;;;;;;;;22.57;33.08;101358.13;4098176;29;19922;-71
2024/03/23 06:36:38;;;;;;;;;;;;;;;22.58;32.96;101361.69;4098156;29;19929;-70
2024/03/23 06:38:39;;;;;;;;;;;;;;;22.58;32.71;101359.84;4098457;29;19944;-71
2024/03/23 06:40:40;;;;;;;;;;;;;;;22.58;32.84;101364.38;4098370;29;19928;-70
2024/03/23 06:42:41;;;;;;;;;;;;;;;22.57;32.79;101357.31;4098397;29;19922;-70
2024/03/23 06:44:43;;;;;;;;;;;;;;;22.57;33.18;101365.34;4098084;29;19923;-70
2024/03/23 06:46:44;;;;;;;;;;;;;;;22.57;32.99;101365.34;4098267;29;19937;-70
2024/03/23 06:48:46;;;;;;;;;;;;;;;22.58;32.92;101367.06;4097785;29;19941;-70
2024/03/23 06:50:47;;;;;;;;;;;;;;;22.58;32.65;101369.75;4098051;29;19922;-69
2024/03/23 06:52:49;;;;;;;;;;;;;;;22.57;32.94;101370.69;4098329;29;19926;-71
2024/03/23 06:54:50;;;;;;;;;;;;;;;22.58;33.02;101369.75;4098020;29;19929;-70
2024/03/23 06:56:51;;;;;;;;;;;;;;;22.56;32.87;101377.88;4098042;29;19922;-70
2024/03/23 06:58:52;;;;;;;;;;;;;;;22.53;32.93;101367.41;4098250;29;19946;-70
2024/03/23 07:00:53;;;;;;;;;;;;;;;22.53;32.60;101375.44;4098060;29;19922;-70
2024/03/23 07:02:54;;;;;;;;;;;;;;;22.55;32.94;101386.03;4097942;29;19923;-69
2024/03/23 07:04:55;;;;;;;;;;;;;;;22.53;32.76;101385.28;4097590;29;19933;-71
2024/03/23 07:06:56;;;;;;;;;;;;;;;22.54;32.63;101393.25;4098522;28;19966;-70
2024/03/23 07:08:57;;;;;;;;;;;;;;;22.53;32.80;101391.53;4101203;29;19926;-71
2024/03/23 07:10:58;;;;;;;;;;;;;;;22.53;32.93;101385.28;4101270;29;19926;-69
2024/03/23 07:12:59;;;;;;;;;;;;;;;22.53;32.87;101374.56;4085591;29;19929;-69
2024/03/23 07:15:00;;;;;;;;;;;;;;;22.52;32.87;101372.84;4101349;29;20013;-70
2024/03/23 07:17:02;;;;;;;;;;;;;;;22.52;32.51;101378.22;4084951;29;19923;-69
2024/03/23 07:19:03;;;;;;;;;;;;;;;22.51;32.62;101379.22;4101189;29;19934;-70
2024/03/23 07:21:06;;;;;;;;;;;;;;;22.48;32.78;101381.16;4101046;29;19923;-69
2024/03/23 07:23:07;;;;;;;;;;;;;;;22.46;32.73;101384.91;4101024;29;19940;-70
2024/03/23 07:25:08;;;;;;;;;;;;;;;22.43;32.59;101386.00;4085258;29;19923;-71
2024/03/23 07:27:12;;;;;;;;;;;;;;;22.42;32.86;101397.69;4100898;29;20080;-71
2024/03/23 07:29:13;;;;;;;;;;;;;;;22.42;32.84;101386.97;4101282;29;20290;-70
2024/03/23 07:31:14;;;;;;;;;;;;;;;22.43;32.66;101383.34;4101162;29;19923;-69
2024/03/23 07:33:15;;;;;;;;;;;;;;;22.49;32.62;101388.22;4100832;29;19922;-70
2024/03/23 07:35:16;;;;;;;;;;;;;;;22.49;32.36;101382.88;4100810;29;20342;-71
2024/03/23 07:37:17;;;;;;;;;;;;;;;22.49;32.65;101382.88;4100712;29;19926;-71
2024/03/23 07:39:18;;;;;;;;;;;;;;;22.53;32.30;101378.13;4100948;29;19977;-72
2024/03/23 07:41:20;;;;;;;;;;;;;;;22.57;32.65;101381.44;4100907;29;19938;-70
2024/03/23 07:43:21;;;;;;;;;;;;;;;22.58;32.62;101383.97;4100780;29;19923;-71
2024/03/23 07:45:22;;;;;;;;;;;;;;;22.59;32.40;101374.97;4100600;29;19922;-72
2024/03/23 07:47:24;;;;;;;;;;;;;;;22.56;32.60;101367.16;4100209;29;19977;-71
2024/03/23 07:49:25;;;;;;;;;;;;;;;22.60;32.53;101368.66;4100458;29;19926;-71
2024/03/23 07:51:26;;;;;;;;;;;;;;;22.60;32.41;101368.66;4084998;29;19923;-71
2024/03/23 07:53:28;;;;;;;;;;;;;;;22.60;32.72;101368.66;4100558;29;19922;-71
2024/03/23 07:55:29;;;;;;;;;;;;;;;22.60;32.40;101365.97;4100502;29;19926;-71
2024/03/23 07:57:30;;;;;;;;;;;;;;;22.59;32.29;101363.38;4100635;29;19977;-71
2024/03/23 07:59:33;;;;;;;;;;;;;;;22.60;32.27;101370.44;4100725;29;19922;-71
2024/03/23 08:01:34;;;;;;;;;;;;;;;22.61;32.52;101362.31;4100183;29;20266;-70
2024/03/23 08:03:37;;;;;;;;;;;;;;;22.61;32.65;101373.03;4084878;29;20093;-71
2024/03/23 08:05:38;;;;;;;;;;;;;;;22.59;32.28;101374.09;4100548;29;20018;-70
2024/03/23 08:07:39;;;;;;;;;;;;;;;22.56;32.37;101383.22;4100360;29;19989;-69
2024/03/23 08:09:40;;;;;;;;;;;;;;;22.54;32.27;101379.84;4100428;29;20404;-69
2024/03/23 08:11:43;;;;;;;;;;;;;;;22.56;32.19;101385.91;4100441;29;19929;-70
2024/03/23 08:13:45;;;;;;;;;;;;;;;22.60;32.41;101382.03;4100470;29;19994;-69
2024/03/23 08:15:46;;;;;;;;;;;;;;;22.62;32.41;101379.25;4084074;29;19929;-69
2024/03/23 08:17:47;;;;;;;;;;;;;;;22.57;32.46;101386.78;4099678;28;19971;-69
2024/03/23 08:19:48;;;;;;;;;;;;;;;22.55;32.22;101381.53;4100510;29;20332;-69
2024/03/23 08:21:51;;;;;;;;;;;;;;;22.54;32.14;101387.00;4100188;29;20005;-70
2024/03/23 08:23:52;;;;;;;;;;;;;;;22.53;32.54;101385.28;4100230;29;19923;-69
2024/03/23 08:26:00;;;;;;;;;;;;;;;22.57;32.52;101395.66;4100136;29;20032;-70
2024/03/23 08:28:01;;;;;;;;;;;;;;;22.58;32.60;101385.81;4099947;29;19928;-70
2024/03/23 08:30:02;;;;;;;;;;;;;;;22.57;32.29;101384.09;4100028;29;19926;-70
2024/03/23 08:32:03;;;;;;;;;;;;;;;22.57;32.29;101386.78;4099833;29;19926;-70
2024/03/23 08:34:04;;;;;;;;;;;;;;;22.59;32.59;101392.88;4084075;29;19923;-70
2024/03/23 08:36:07;;;;;;;;;;;;;;;22.59;32.52;101388.38;4100217;29;19928;-70
2024/03/23 08:38:08;;;;;;;;;;;;;;;22.59;32.29;101396.41;4084311;29;19997;-69
2024/03/23 08:40:09;;;;;;;;;;;;;;;22.58;32.33;101388.50;4100218;29;19932;-70
2024/03/23 08:42:10;;;;;;;;;;;;;;;22.59;32.45;101406.28;4100139;29;19928;-70
2024/03/23 08:44:11;;;;;;;;;;;;;;;22.57;32.22;101410.91;4099916;29;20223;-70
2024/03/23 08:46:13;;;;;;;;;;;;;;;22.55;32.28;101421.72;4099248;29;19926;-70
2024/03/23 08:48:14;;;;;;;;;;;;;;;22.54;32.31;101424.53;4099985;29;19926;-70
2024/03/23 08:50:15;;;;;;;;;;;;;;;22.51;32.50;101422.09;4099790;29;19929;-70
2024/03/23 08:52:16;;;;;;;;;;;;;;;22.48;32.58;101405.28;4099725;29;19948;-71
2024/03/23 08:54:17;;;;;;;;;;;;;;;22.45;32.39;101402.81;4099657;29;19931;-71
2024/03/23 08:56:19;;;;;;;;;;;;;;;22.46;32.42;101407.19;4099753;29;19926;-70
2024/03/23 08:58:21;;;;;;;;;;;;;;;22.46;32.41;101401.84;4099823;29;19929;-70
2024/03/23 09:00:22;;;;;;;;;;;;;;;22.43;32.41;101406.56;4099468;29;20348;-71
2024/03/23 09:02:23;;;;;;;;;;;;;;;22.42;32.72;101408.41;4099652;29;19922;-70
2024/03/23 09:04:24;;;;;;;;;;;;;;;22.42;32.70;101410.22;4099845;29;20313;-70
2024/03/23 09:06:25;;;;;;;;;;;;;;;22.40;32.36;101405.00;4099694;29;20336;-70
2024/03/23 09:08:26;;;;;;;;;;;;;;;22.44;32.52;101403.81;4083660;29;19923;-71
2024/03/23 09:10:27;;;;;;;;;;;;;;;22.45;32.43;101391.25;4099488;29;19922;-71
2024/03/23 09:12:28;;;;;;;;;;;;;;;22.48;32.37;101394.56;4099457;29;19926;-71
2024/03/23 09:14:29;;;;;;;;;;;;;;;22.51;32.38;101387.25;4099360;29;19929;-70
2024/03/23 09:16:30;;;;;;;;;;;;;;;22.55;32.51;101391.41;4099417;29;19922;-70
2024/03/23 09:18:32;;;;;;;;;;;;;;;22.55;32.41;101391.41;4099252;29;19970;-70
2024/03/23 09:20:33;;;;;;;;;;;;;;;22.56;32.38;101385.06;4099644;29;19923;-71
2024/03/23 09:22:34;;;;;;;;;;;;;;;22.54;32.67;101393.25;4099139;29;19922;-71
2024/03/23 09:24:36;;;;;;;;;;;;;;;22.53;32.70;101390.66;4099343;29;19922;-71
2024/03/23 09:26:37;;;;;;;;;;;;;;;22.53;32.58;101388.84;4099049;29;19922;-70
2024/03/23 09:28:38;;;;;;;;;;;;;;;22.52;32.33;101386.25;4098941;29;19932;-71
2024/03/23 09:30:42;;;;;;;;;;;;;;;22.52;32.50;101379.09;4098669;28;20368;-71
2024/03/23 09:32:44;;;;;;;;;;;;;;;22.49;32.51;101377.50;4099297;29;19950;-72
2024/03/23 09:34:45;;;;;;;;;;;;;;;22.49;32.35;101379.31;4099325;29;19922;-71
2024/03/23 09:36:47;;;;;;;;;;;;;;;22.49;32.14;101373.94;4099185;29;20430;-71
2024/03/23 09:38:48;;;;;;;;;;;;;;;22.47;32.53;101382.13;4099270;29;19926;-71
2024/03/23 09:40:53;;;;;;;;;;;;;;;22.46;32.55;101384.91;4099171;29;20044;-71
2024/03/23 09:42:55;;;;;;;;;;;;;;;22.45;32.55;101384.03;4098596;29;19928;-71
2024/03/23 09:44:57;;;;;;;;;;;;;;;22.46;32.47;101384.91;4099068;29;19930;-71
2024/03/23 09:46:58;;;;;;;;;;;;;;;22.46;32.59;101384.91;4083035;29;19922;-71
2024/03/23 09:49:00;;;;;;;;;;;;;;;22.49;32.57;101385.53;4099113;29;19929;-72
2024/03/23 09:51:02;;;;;;;;;;;;;;;22.47;32.58;101379.44;4098792;29;19923;-71
2024/03/23 09:53:03;;;;;;;;;;;;;;;22.45;32.59;101373.31;4098805;29;19933;-71
2024/03/23 09:55:04;;;;;;;;;;;;;;;22.47;32.51;101381.28;4099005;29;19929;-71
2024/03/23 09:57:05;;;;;;;;;;;;;;;22.46;32.44;101368.84;4098556;29;20369;-72
2024/03/23 09:59:07;;;;;;;;;;;;;;;22.46;32.15;101366.16;4098626;29;20393;-71
2024/03/23 10:01:08;;;;;;;;;;;;;;;22.45;32.53;101373.31;4099021;29;19981;-69
2024/03/23 10:03:11;;;;;;;;;;;;;;;22.46;32.53;101353.59;4098624;29;19922;-69
2024/03/23 10:05:19;;;;;;;;;;;;;;;22.46;32.20;101360.78;4098748;29;19923;-70
2024/03/23 10:07:22;;;;;;;;;;;;;;;22.46;32.15;101368.84;4098788;29;19922;-72
2024/03/23 10:09:25;;;;;;;;;;;;;;;22.46;32.20;101363.47;4098564;29;19923;-71
2024/03/23 10:11:29;;;;;;;;;;;;;;;22.45;32.36;101351.88;4098696;29;19922;-71
2024/03/23 10:13:30;;;;;;;;;;;;;;;22.46;32.25;101358.97;4098369;29;19927;-71
2024/03/23 10:15:33;;;;;;;;;;;;;;;22.46;32.23;101353.59;4098453;29;19928;-70
2024/03/23 10:17:34;;;;;;;;;;;;;;;22.47;32.23;101349.94;4098308;29;19922;-70
2024/03/23 10:19:35;;;;;;;;;;;;;;;22.49;31.97;101352.50;4082470;29;19923;-71
2024/03/23 10:21:36;;;;;;;;;;;;;;;22.50;32.14;101359.56;4098269;29;19930;-70